sensor_id;sensor_type;location;lat;lon;timestamp;pressure;altitude;pressure_sealevel;temperature;humidity
30614;BME280;17381;51.690;5.270;2023-04-05T00:00:57;102483.13;;;5.40;62.89
30614;BME280;17381;51.690;5.270;2023-04-05T00:03:26;102487.38;;;5.36;62.89
30614;BME280;17381;51.690;5.270;2023-04-05T00:06:03;102483.78;;;5.31;62.96
30614;BME280;17381;51.690;5.270;2023-04-05T00:08:33;102490.78;;;5.32;63.40
30614;BME280;17381;51.690;5.270;2023-04-05T00:11:01;102470.38;;;5.14;63.56
30614;BME280;17381;51.690;5.270;2023-04-05T00:13:40;102487.94;;;5.23;63.60
30614;BME280;17381;51.690;5.270;2023-04-05T00:16:12;102485.16;;;5.15;63.84
30614;BME280;17381;51.690;5.270;2023-04-05T00:18:46;102493.78;;;5.13;63.73
30614;BME280;17381;51.690;5.270;2023-04-05T00:21:20;102491.06;;;5.08;64.14
30614;BME280;17381;51.690;5.270;2023-04-05T00:23:54;102490.97;;;5.03;64.30
30614;BME280;17381;51.690;5.270;2023-04-05T00:26:33;102488.22;;;4.97;64.25
30614;BME280;17381;51.690;5.270;2023-04-05T00:29:10;102489.81;;;4.91;64.34
30614;BME280;17381;51.690;5.270;2023-04-05T00:31:43;102393.75;;;4.33;64.25
30614;BME280;17381;51.690;5.270;2023-04-05T00:34:17;102471.19;;;4.75;64.27
30614;BME280;17381;51.690;5.270;2023-04-05T00:36:49;102477.22;;;4.74;64.32
30614;BME280;17381;51.690;5.270;2023-04-05T00:39:16;102431.31;;;4.43;64.60
30614;BME280;17381;51.690;5.270;2023-04-05T00:41:47;102476.22;;;4.68;65.13
30614;BME280;17381;51.690;5.270;2023-04-05T00:44:16;102472.63;;;4.63;65.30
30614;BME280;17381;51.690;5.270;2023-04-05T00:46:49;102472.56;;;4.61;65.80
30614;BME280;17381;51.690;5.270;2023-04-05T00:49:25;102466.41;;;4.57;65.17
30614;BME280;17381;51.690;5.270;2023-04-05T00:51:59;102463.63;;;4.50;65.90
30614;BME280;17381;51.690;5.270;2023-04-05T00:54:53;102411.38;;;4.10;65.40
30614;BME280;17381;51.690;5.270;2023-04-05T00:57:19;102465.16;;;4.42;66.16
30614;BME280;17381;51.690;5.270;2023-04-05T01:00:00;102469.44;;;4.41;65.92
30614;BME280;17381;51.690;5.270;2023-04-05T01:02:48;102377.88;;;3.88;66.46
30614;BME280;17381;51.690;5.270;2023-04-05T01:05:47;102469.28;;;4.35;66.75
30614;BME280;17381;51.690;5.270;2023-04-05T01:11:20;102470.69;;;4.22;66.25
30614;BME280;17381;51.690;5.270;2023-04-05T01:13:49;102442.75;;;4.15;66.37
30614;BME280;17381;51.690;5.270;2023-04-05T01:16:22;102456.63;;;4.15;67.10
30614;BME280;17381;51.690;5.270;2023-04-05T01:18:54;102461.94;;;4.19;66.56
30614;BME280;17381;51.690;5.270;2023-04-05T01:24:27;102456.63;;;4.15;67.27
30614;BME280;17381;51.690;5.270;2023-04-05T01:27:09;102453.94;;;4.12;67.12
30614;BME280;17381;51.690;5.270;2023-04-05T01:29:57;102451.25;;;4.09;67.30
30614;BME280;17381;51.690;5.270;2023-04-05T01:33:25;102448.59;;;4.08;67.23
30614;BME280;17381;51.690;5.270;2023-04-05T01:38:41;102443.22;;;4.00;67.60
30614;BME280;17381;51.690;5.270;2023-04-05T01:41:11;102445.72;;;3.97;67.94
30614;BME280;17381;51.690;5.270;2023-04-05T01:43:45;102372.78;;;3.61;68.00
30614;BME280;17381;51.690;5.270;2023-04-05T01:46:20;102429.09;;;3.90;68.18
30614;BME280;17381;51.690;5.270;2023-04-05T01:48:58;102435.09;;;3.88;67.81
30614;BME280;17381;51.690;5.270;2023-04-05T01:51:28;102430.63;;;3.84;68.37
30614;BME280;17381;51.690;5.270;2023-04-05T01:54:06;102392.63;;;3.57;68.54
30614;BME280;17381;51.690;5.270;2023-04-05T01:56:47;102434.03;;;3.81;68.05
30614;BME280;17381;51.690;5.270;2023-04-05T01:59:20;102424.41;;;3.79;68.09
30614;BME280;17381;51.690;5.270;2023-04-05T02:01:46;102404.97;;;3.64;67.98
30614;BME280;17381;51.690;5.270;2023-04-05T02:04:49;102419.78;;;3.68;67.97
30614;BME280;17381;51.690;5.270;2023-04-05T02:07:26;102422.22;;;3.62;68.41
30614;BME280;17381;51.690;5.270;2023-04-05T02:09:55;102425.75;;;3.64;68.65
30614;BME280;17381;51.690;5.270;2023-04-05T02:12:30;102424.84;;;3.62;68.70
30614;BME280;17381;51.690;5.270;2023-04-05T02:15:13;102393.84;;;3.40;68.30
30614;BME280;17381;51.690;5.270;2023-04-05T02:17:52;102382.38;;;3.32;68.76
30614;BME280;17381;51.690;5.270;2023-04-05T02:20:21;102413.16;;;3.48;68.28
30614;BME280;17381;51.690;5.270;2023-04-05T02:22:48;102364.56;;;3.15;69.04
30614;BME280;17381;51.690;5.270;2023-04-05T02:25:24;102427.84;;;3.46;68.87
30614;BME280;17381;51.690;5.270;2023-04-05T02:27:59;102405.91;;;3.38;69.09
30614;BME280;17381;51.690;5.270;2023-04-05T02:30:40;102379.41;;;3.19;68.84
30614;BME280;17381;51.690;5.270;2023-04-05T02:33:14;102402.28;;;3.31;69.03
30614;BME280;17381;51.690;5.270;2023-04-05T02:35:40;102412.69;;;3.33;69.18
30614;BME280;17381;51.690;5.270;2023-04-05T02:38:40;102405.59;;;3.25;68.99
30614;BME280;17381;51.690;5.270;2023-04-05T02:41:19;102404.50;;;3.19;69.26
30614;BME280;17381;51.690;5.270;2023-04-05T02:43:56;102408.75;;;3.15;69.29
30614;BME280;17381;51.690;5.270;2023-04-05T02:46:35;102382.38;;;3.03;69.17
30614;BME280;17381;51.690;5.270;2023-04-05T02:49:14;102364.69;;;2.90;69.16
30614;BME280;17381;51.690;5.270;2023-04-05T02:51:49;102405.13;;;3.10;69.49
30614;BME280;17381;51.690;5.270;2023-04-05T02:54:24;102403.34;;;3.09;69.85
30614;BME280;17381;51.690;5.270;2023-04-05T02:57:02;102394.53;;;3.04;69.64
30614;BME280;17381;51.690;5.270;2023-04-05T02:59:56;102395.41;;;3.04;69.36
30614;BME280;17381;51.690;5.270;2023-04-05T03:02:28;102390.13;;;3.01;69.61
30614;BME280;17381;51.690;5.270;2023-04-05T03:05:08;102383.88;;;2.95;69.51
30614;BME280;17381;51.690;5.270;2023-04-05T03:07:38;102389.19;;;2.99;69.48
30614;BME280;17381;51.690;5.270;2023-04-05T03:10:10;102393.31;;;2.93;69.53
30614;BME280;17381;51.690;5.270;2023-04-05T03:12:56;102380.25;;;2.90;69.83
30614;BME280;17381;51.690;5.270;2023-04-05T03:15:38;102383.66;;;2.89;70.02
30614;BME280;17381;51.690;5.270;2023-04-05T03:18:19;102378.31;;;2.82;70.00
30614;BME280;17381;51.690;5.270;2023-04-05T03:20:57;102348.19;;;2.60;69.79
30614;BME280;17381;51.690;5.270;2023-04-05T03:23:37;102380.72;;;2.76;69.88
30614;BME280;17381;51.690;5.270;2023-04-05T03:26:13;102370.44;;;2.81;70.05
30614;BME280;17381;51.690;5.270;2023-04-05T03:28:49;102385.06;;;2.77;70.18
30614;BME280;17381;51.690;5.270;2023-04-05T03:31:32;102383.19;;;2.73;69.99
30614;BME280;17381;51.690;5.270;2023-04-05T03:34:11;102375.13;;;2.64;69.37
30614;BME280;17381;51.690;5.270;2023-04-05T03:36:51;102377.72;;;2.64;69.57
30614;BME280;17381;51.690;5.270;2023-04-05T03:39:44;102383.63;;;2.58;69.84
30614;BME280;17381;51.690;5.270;2023-04-05T03:42:15;102373.78;;;2.50;69.63
30614;BME280;17381;51.690;5.270;2023-04-05T03:44:59;102370.25;;;2.48;69.51
30614;BME280;17381;51.690;5.270;2023-04-05T03:47:37;102373.41;;;2.37;69.69
30614;BME280;17381;51.690;5.270;2023-04-05T03:50:15;102380.03;;;2.29;70.36
30614;BME280;17381;51.690;5.270;2023-04-05T03:52:41;102377.50;;;2.31;70.09
30614;BME280;17381;51.690;5.270;2023-04-05T03:55:15;102374.75;;;2.26;69.88
30614;BME280;17381;51.690;5.270;2023-04-05T03:57:46;102317.38;;;1.90;70.25
30614;BME280;17381;51.690;5.270;2023-04-05T04:00:26;102378.09;;;2.22;70.53
30614;BME280;17381;51.690;5.270;2023-04-05T04:03:20;102369.31;;;2.18;70.33
30614;BME280;17381;51.690;5.270;2023-04-05T04:05:56;102370.09;;;2.16;70.44
30614;BME280;17381;51.690;5.270;2023-04-05T04:08:31;102366.56;;;2.14;70.68
30614;BME280;17381;51.690;5.270;2023-04-05T04:11:02;102370.97;;;2.16;70.30
30614;BME280;17381;51.690;5.270;2023-04-05T04:13:38;102353.41;;;2.08;70.39
30614;BME280;17381;51.690;5.270;2023-04-05T04:16:35;102363.06;;;2.12;70.33
30614;BME280;17381;51.690;5.270;2023-04-05T04:19:28;102367.34;;;2.11;70.70
30614;BME280;17381;51.690;5.270;2023-04-05T04:22:17;102364.66;;;2.08;70.63
30614;BME280;17381;51.690;5.270;2023-04-05T04:25:10;102315.91;;;1.72;70.67
30614;BME280;17381;51.690;5.270;2023-04-05T04:28:11;102360.06;;;2.00;70.87
30614;BME280;17381;51.690;5.270;2023-04-05T04:31:16;102366.00;;;1.97;70.72
30614;BME280;17381;51.690;5.270;2023-04-05T04:34:15;102364.13;;;1.93;71.14
30614;BME280;17381;51.690;5.270;2023-04-05T04:37:04;102365.84;;;1.92;70.98
30614;BME280;17381;51.690;5.270;2023-04-05T04:39:45;102343.75;;;1.78;71.17
30614;BME280;17381;51.690;5.270;2023-04-05T04:42:52;102326.78;;;1.62;71.16
30614;BME280;17381;51.690;5.270;2023-04-05T04:46:02;102327.63;;;1.61;71.05
30614;BME280;17381;51.690;5.270;2023-04-05T04:48:53;102374.06;;;1.81;71.22
30614;BME280;17381;51.690;5.270;2023-04-05T04:51:33;102357.34;;;1.71;71.36
30614;BME280;17381;51.690;5.270;2023-04-05T04:54:11;102368.66;;;1.73;71.37
30614;BME280;17381;51.690;5.270;2023-04-05T04:56:54;102306.75;;;1.33;71.26
30614;BME280;17381;51.690;5.270;2023-04-05T04:59:27;102371.84;;;1.66;71.43
30614;BME280;17381;51.690;5.270;2023-04-05T05:02:11;102362.19;;;1.62;71.41
30614;BME280;17381;51.690;5.270;2023-04-05T05:04:42;102316.34;;;1.35;71.37
30614;BME280;17381;51.690;5.270;2023-04-05T05:07:25;102349.72;;;1.51;71.57
30614;BME280;17381;51.690;5.270;2023-04-05T05:10:01;102362.78;;;1.55;71.67
30614;BME280;17381;51.690;5.270;2023-04-05T05:12:34;102364.59;;;1.57;71.98
30614;BME280;17381;51.690;5.270;2023-04-05T05:15:08;102359.41;;;1.57;71.79
30614;BME280;17381;51.690;5.270;2023-04-05T05:17:48;102367.19;;;1.57;71.92
30614;BME280;17381;51.690;5.270;2023-04-05T05:20:18;102368.09;;;1.58;72.02
30614;BME280;17381;51.690;5.270;2023-04-05T05:22:51;102374.97;;;1.57;72.01
30614;BME280;17381;51.690;5.270;2023-04-05T05:25:31;102368.09;;;1.58;71.93
30614;BME280;17381;51.690;5.270;2023-04-05T05:28:11;102358.44;;;1.53;71.95
30614;BME280;17381;51.690;5.270;2023-04-05T05:30:48;102363.72;;;1.57;72.22
30614;BME280;17381;51.690;5.270;2023-04-05T05:33:17;102364.56;;;1.56;72.07
30614;BME280;17381;51.690;5.270;2023-04-05T05:35:54;102351.50;;;1.52;72.51
30614;BME280;17381;51.690;5.270;2023-04-05T05:38:32;102348.84;;;1.51;72.41
30614;BME280;17381;51.690;5.270;2023-04-05T05:41:06;102360.38;;;1.59;72.82
30614;BME280;17381;51.690;5.270;2023-04-05T05:43:36;102348.19;;;1.57;72.65
30614;BME280;17381;51.690;5.270;2023-04-05T05:46:04;102357.94;;;1.64;72.74
30614;BME280;17381;51.690;5.270;2023-04-05T05:48:59;102362.28;;;1.65;72.64
30614;BME280;17381;51.690;5.270;2023-04-05T05:51:33;102362.28;;;1.65;72.98
30614;BME280;17381;51.690;5.270;2023-04-05T05:54:09;102370.28;;;1.71;72.88
30614;BME280;17381;51.690;5.270;2023-04-05T05:56:50;102358.91;;;1.67;72.58
30614;BME280;17381;51.690;5.270;2023-04-05T05:59:17;102361.69;;;1.72;73.05
30614;BME280;17381;51.690;5.270;2023-04-05T06:01:53;102362.03;;;1.83;72.88
30614;BME280;17381;51.690;5.270;2023-04-05T06:04:33;102355.06;;;1.80;72.92
30614;BME280;17381;51.690;5.270;2023-04-05T06:07:13;102360.34;;;1.83;72.79
30614;BME280;17381;51.690;5.270;2023-04-05T06:09:49;102365.75;;;1.89;72.98
30614;BME280;17381;51.690;5.270;2023-04-05T06:12:23;102368.44;;;1.92;72.87
30614;BME280;17381;51.690;5.270;2023-04-05T06:14:52;102382.44;;;1.98;73.02
30614;BME280;17381;51.690;5.270;2023-04-05T06:17:26;102364.09;;;1.91;72.79
30614;BME280;17381;51.690;5.270;2023-04-05T06:20:07;102380.88;;;2.03;73.13
30614;BME280;17381;51.690;5.270;2023-04-05T06:22:37;102358.94;;;1.93;72.83
30614;BME280;17381;51.690;5.270;2023-04-05T06:25:17;102376.03;;;2.12;73.23
30614;BME280;17381;51.690;5.270;2023-04-05T06:27:53;102368.34;;;2.15;73.06
30614;BME280;17381;51.690;5.270;2023-04-05T06:30:34;102372.00;;;2.22;73.37
30614;BME280;17381;51.690;5.270;2023-04-05T06:33:19;102365.84;;;2.18;73.38
30614;BME280;17381;51.690;5.270;2023-04-05T06:36:08;102370.78;;;2.37;73.01
30614;BME280;17381;51.690;5.270;2023-04-05T06:38:40;102377.88;;;2.42;73.30
30614;BME280;17381;51.690;5.270;2023-04-05T06:41:06;102313.03;;;2.16;72.97
30614;BME280;17381;51.690;5.270;2023-04-05T06:43:38;102368.03;;;2.58;73.02
30614;BME280;17381;51.690;5.270;2023-04-05T06:46:10;102359.47;;;2.61;72.58
30614;BME280;17381;51.690;5.270;2023-04-05T06:48:40;102361.53;;;2.73;72.52
30614;BME280;17381;51.690;5.270;2023-04-05T06:51:21;102362.56;;;2.78;72.16
30614;BME280;17381;51.690;5.270;2023-04-05T06:53:55;102358.50;;;2.86;72.37
30614;BME280;17381;51.690;5.270;2023-04-05T06:56:29;102366.59;;;2.97;71.63
30614;BME280;17381;51.690;5.270;2023-04-05T06:58:55;102363.44;;;3.07;71.55
30614;BME280;17381;51.690;5.270;2023-04-05T07:01:30;102362.06;;;3.18;71.35
30614;BME280;17381;51.690;5.270;2023-04-05T07:03:56;102358.69;;;3.22;70.55
30614;BME280;17381;51.690;5.270;2023-04-05T07:06:22;102352.13;;;3.34;70.46
30614;BME280;17381;51.690;5.270;2023-04-05T07:08:54;102315.31;;;3.18;70.38
30614;BME280;17381;51.690;5.270;2023-04-05T07:11:26;102360.34;;;3.49;70.25
30614;BME280;17381;51.690;5.270;2023-04-05T07:14:14;102349.19;;;3.53;69.83
30614;BME280;17381;51.690;5.270;2023-04-05T07:17:10;102361.78;;;3.69;69.99
30614;BME280;17381;51.690;5.270;2023-04-05T07:19:51;102375.19;;;3.85;68.83
30614;BME280;17381;51.690;5.270;2023-04-05T07:22:26;102362.47;;;3.97;68.89
30614;BME280;17381;51.690;5.270;2023-04-05T07:24:56;102359.28;;;4.07;68.32
30614;BME280;17381;51.690;5.270;2023-04-05T07:27:26;102361.31;;;4.19;67.80
30614;BME280;17381;51.690;5.270;2023-04-05T07:30:03;102349.31;;;4.24;67.17
30614;BME280;17381;51.690;5.270;2023-04-05T07:32:34;102359.22;;;4.39;66.50
30614;BME280;17381;51.690;5.270;2023-04-05T07:35:05;102358.56;;;4.48;66.35
30614;BME280;17381;51.690;5.270;2023-04-05T07:37:31;102362.25;;;4.57;66.46
30614;BME280;17381;51.690;5.270;2023-04-05T07:40:08;102352.84;;;4.63;66.54
30614;BME280;17381;51.690;5.270;2023-04-05T07:42:41;102349.50;;;4.70;66.38
30614;BME280;17381;51.690;5.270;2023-04-05T07:45:22;102328.72;;;4.71;65.04
30614;BME280;17381;51.690;5.270;2023-04-05T07:48:00;102352.72;;;4.96;64.52
30614;BME280;17381;51.690;5.270;2023-04-05T07:50:40;102359.91;;;5.08;64.08
30614;BME280;17381;51.690;5.270;2023-04-05T07:53:22;102368.84;;;5.19;64.15
30614;BME280;17381;51.690;5.270;2023-04-05T07:55:54;102367.22;;;5.25;64.41
30614;BME280;17381;51.690;5.270;2023-04-05T07:58:27;102353.50;;;5.34;64.19
30614;BME280;17381;51.690;5.270;2023-04-05T08:01:00;102367.66;;;5.45;64.25
30614;BME280;17381;51.690;5.270;2023-04-05T08:03:39;102352.06;;;5.49;64.37
30614;BME280;17381;51.690;5.270;2023-04-05T08:06:18;102365.41;;;5.64;63.63
30614;BME280;17381;51.690;5.270;2023-04-05T08:08:52;102352.41;;;5.67;62.56
30614;BME280;17381;51.690;5.270;2023-04-05T08:11:37;102357.00;;;5.80;61.83
30614;BME280;17381;51.690;5.270;2023-04-05T08:14:15;102357.97;;;5.85;62.26
30614;BME280;17381;51.690;5.270;2023-04-05T08:16:57;102344.13;;;5.89;61.37
30614;BME280;17381;51.690;5.270;2023-04-05T08:19:28;102341.69;;;5.97;61.61
30614;BME280;17381;51.690;5.270;2023-04-05T08:22:02;102357.72;;;6.17;62.11
30614;BME280;17381;51.690;5.270;2023-04-05T08:24:51;102302.63;;;6.02;61.66
30614;BME280;17381;51.690;5.270;2023-04-05T08:30:55;102340.59;;;6.36;61.80
30614;BME280;17381;51.690;5.270;2023-04-05T08:34:07;102343.66;;;6.65;60.39
30614;BME280;17381;51.690;5.270;2023-04-05T08:40:12;102349.63;;;7.19;61.10
30614;BME280;17381;51.690;5.270;2023-04-05T08:43:22;102335.69;;;8.04;59.79
30614;BME280;17381;51.690;5.270;2023-04-05T08:46:02;102335.56;;;9.11;57.12
30614;BME280;17381;51.690;5.270;2023-04-05T08:49:07;102273.63;;;9.67;53.90
30614;BME280;17381;51.690;5.270;2023-04-05T08:52:21;102327.91;;;10.70;52.14
30614;BME280;17381;51.690;5.270;2023-04-05T08:55:08;102324.19;;;11.25;49.09
30614;BME280;17381;51.690;5.270;2023-04-05T08:58:00;102330.22;;;11.52;49.19
30614;BME280;17381;51.690;5.270;2023-04-05T09:00:58;102332.66;;;11.83;49.13
30614;BME280;17381;51.690;5.270;2023-04-05T09:03:47;102321.94;;;12.10;46.94
30614;BME280;17381;51.690;5.270;2023-04-05T09:06:50;102305.00;;;12.37;46.94
30614;BME280;17381;51.690;5.270;2023-04-05T09:09:25;102315.13;;;12.77;46.38
30614;BME280;17381;51.690;5.270;2023-04-05T09:11:59;102311.16;;;13.15;45.51
30614;BME280;17381;51.690;5.270;2023-04-05T09:14:52;102315.00;;;13.61;45.13
30614;BME280;17381;51.690;5.270;2023-04-05T09:17:33;102316.09;;;14.03;41.56
30614;BME280;17381;51.690;5.270;2023-04-05T09:20:23;102310.25;;;14.35;42.25
30614;BME280;17381;51.690;5.270;2023-04-05T09:22:57;102307.81;;;14.74;41.62
30614;BME280;17381;51.690;5.270;2023-04-05T09:25:44;102308.13;;;15.02;37.79
30614;BME280;17381;51.690;5.270;2023-04-05T09:28:43;102302.38;;;15.24;38.22
30614;BME280;17381;51.690;5.270;2023-04-05T09:31:39;102289.41;;;15.51;38.89
30614;BME280;17381;51.690;5.270;2023-04-05T09:34:25;102298.38;;;15.82;36.65
30614;BME280;17381;51.690;5.270;2023-04-05T09:36:58;102259.84;;;15.69;36.08
30614;BME280;17381;51.690;5.270;2023-04-05T09:39:55;102300.63;;;16.01;34.96
30614;BME280;17381;51.690;5.270;2023-04-05T09:42:50;102299.75;;;16.34;35.59
30614;BME280;17381;51.690;5.270;2023-04-05T09:45:42;102290.91;;;16.67;34.27
30614;BME280;17381;51.690;5.270;2023-04-05T09:48:48;102290.28;;;16.90;33.79
30614;BME280;17381;51.690;5.270;2023-04-05T09:51:21;102278.94;;;17.14;34.45
30614;BME280;17381;51.690;5.270;2023-04-05T09:54:04;102287.81;;;17.43;33.72
30614;BME280;17381;51.690;5.270;2023-04-05T09:56:34;102283.63;;;17.62;33.23
30614;BME280;17381;51.690;5.270;2023-04-05T09:59:09;102254.72;;;17.52;32.38
30614;BME280;17381;51.690;5.270;2023-04-05T10:01:51;102277.75;;;17.81;31.56
30614;BME280;17381;51.690;5.270;2023-04-05T10:04:25;102281.34;;;17.80;32.73
30614;BME280;17381;51.690;5.270;2023-04-05T10:07:03;102277.69;;;18.09;32.75
30614;BME280;17381;51.690;5.270;2023-04-05T10:09:30;102275.88;;;18.36;32.14
30614;BME280;17381;51.690;5.270;2023-04-05T10:12:00;102270.72;;;18.57;32.16
30614;BME280;17381;51.690;5.270;2023-04-05T10:14:43;102265.44;;;18.80;31.67
30614;BME280;17381;51.690;5.270;2023-04-05T10:20:27;102261.44;;;19.37;31.26
30614;BME280;17381;51.690;5.270;2023-04-05T10:23:08;102259.69;;;19.58;31.16
30614;BME280;17381;51.690;5.270;2023-04-05T10:28:46;102243.84;;;20.18;31.89
30614;BME280;17381;51.690;5.270;2023-04-05T10:34:23;102236.50;;;20.64;30.80
30614;BME280;17381;51.690;5.270;2023-04-05T10:37:04;102236.16;;;20.72;30.56
30614;BME280;17381;51.690;5.270;2023-04-05T10:39:50;102241.06;;;20.81;30.01
30614;BME280;17381;51.690;5.270;2023-04-05T10:42:41;102239.72;;;20.91;28.94
30614;BME280;17381;51.690;5.270;2023-04-05T10:45:17;102240.72;;;21.08;29.77
30614;BME280;17381;51.690;5.270;2023-04-05T10:47:53;102197.22;;;21.04;28.26
30614;BME280;17381;51.690;5.270;2023-04-05T10:50:29;102235.22;;;21.30;28.50
30614;BME280;17381;51.690;5.270;2023-04-05T10:52:59;102233.06;;;21.38;29.34
30614;BME280;17381;51.690;5.270;2023-04-05T10:55:46;102222.63;;;21.51;28.87
30614;BME280;17381;51.690;5.270;2023-04-05T10:58:23;102224.69;;;21.81;29.17
30614;BME280;17381;51.690;5.270;2023-04-05T11:01:02;102193.97;;;21.88;28.35
30614;BME280;17381;51.690;5.270;2023-04-05T11:03:51;102158.78;;;21.78;27.19
30614;BME280;17381;51.690;5.270;2023-04-05T11:06:37;102205.78;;;22.18;26.71
30614;BME280;17381;51.690;5.270;2023-04-05T11:09:30;102204.03;;;22.17;27.24
30614;BME280;17381;51.690;5.270;2023-04-05T11:12:17;102191.91;;;22.28;27.75
30614;BME280;17381;51.690;5.270;2023-04-05T11:14:46;102203.72;;;22.41;26.09
30614;BME280;17381;51.690;5.270;2023-04-05T11:17:26;102208.19;;;22.40;26.85
30614;BME280;17381;51.690;5.270;2023-04-05T11:20:13;102205.63;;;22.55;26.68
30614;BME280;17381;51.690;5.270;2023-04-05T11:22:56;102200.53;;;22.66;26.04
30614;BME280;17381;51.690;5.270;2023-04-05T11:25:28;102166.41;;;22.54;27.03
30614;BME280;17381;51.690;5.270;2023-04-05T11:28:24;102202.28;;;23.00;27.22
30614;BME280;17381;51.690;5.270;2023-04-05T11:31:10;102208.22;;;23.21;28.03
30614;BME280;17381;51.690;5.270;2023-04-05T11:33:59;102198.75;;;23.46;25.81
30614;BME280;17381;51.690;5.270;2023-04-05T11:36:47;102199.84;;;23.58;27.48
30614;BME280;17381;51.690;5.270;2023-04-05T11:39:22;102192.13;;;23.67;25.81
30614;BME280;17381;51.690;5.270;2023-04-05T11:44:23;102186.56;;;23.40;26.29
30614;BME280;17381;51.690;5.270;2023-04-05T11:47:03;102159.75;;;23.24;26.21
30614;BME280;17381;51.690;5.270;2023-04-05T11:49:37;102172.94;;;23.43;25.71
30614;BME280;17381;51.690;5.270;2023-04-05T11:52:23;102158.25;;;23.35;25.41
30614;BME280;17381;51.690;5.270;2023-04-05T11:55:00;102171.00;;;23.61;26.25
30614;BME280;17381;51.690;5.270;2023-04-05T11:57:36;102160.34;;;23.90;26.20
30614;BME280;17381;51.690;5.270;2023-04-05T12:00:11;102165.25;;;23.98;25.80
30614;BME280;17381;51.690;5.270;2023-04-05T12:02:49;102163.16;;;24.31;26.13
30614;BME280;17381;51.690;5.270;2023-04-05T12:05:52;102150.31;;;24.51;24.94
30614;BME280;17381;51.690;5.270;2023-04-05T12:08:44;102157.34;;;24.95;25.90
30614;BME280;17381;51.690;5.270;2023-04-05T12:11:32;102143.91;;;25.22;24.27
30614;BME280;17381;51.690;5.270;2023-04-05T12:14:06;102152.03;;;25.08;24.93
30614;BME280;17381;51.690;5.270;2023-04-05T12:16:49;102140.91;;;24.99;24.97
30614;BME280;17381;51.690;5.270;2023-04-05T12:19:22;102153.16;;;25.03;23.73
30614;BME280;17381;51.690;5.270;2023-04-05T12:22:00;102132.84;;;25.27;25.16
30614;BME280;17381;51.690;5.270;2023-04-05T12:24:31;102137.97;;;25.57;23.60
30614;BME280;17381;51.690;5.270;2023-04-05T12:27:05;102133.34;;;25.59;24.34
30614;BME280;17381;51.690;5.270;2023-04-05T12:29:38;102128.19;;;25.81;24.78
30614;BME280;17381;51.690;5.270;2023-04-05T12:32:12;102139.00;;;26.07;24.09
30614;BME280;17381;51.690;5.270;2023-04-05T12:34:46;102100.53;;;26.05;23.86
30614;BME280;17381;51.690;5.270;2023-04-05T12:37:22;102125.97;;;26.01;21.77
30614;BME280;17381;51.690;5.270;2023-04-05T12:39:53;102123.22;;;25.75;22.62
30614;BME280;17381;51.690;5.270;2023-04-05T12:42:31;102123.63;;;25.43;22.25
30614;BME280;17381;51.690;5.270;2023-04-05T12:45:11;102122.94;;;25.27;23.94
30614;BME280;17381;51.690;5.270;2023-04-05T12:47:58;102115.41;;;25.32;22.16
30614;BME280;17381;51.690;5.270;2023-04-05T12:50:29;102110.66;;;25.23;22.39
30614;BME280;17381;51.690;5.270;2023-04-05T12:53:14;102112.63;;;25.34;23.38
30614;BME280;17381;51.690;5.270;2023-04-05T12:55:55;102111.03;;;25.57;23.44
30614;BME280;17381;51.690;5.270;2023-04-05T12:58:35;102101.94;;;25.98;22.73
30614;BME280;17381;51.690;5.270;2023-04-05T13:01:07;102104.78;;;26.33;22.63
30614;BME280;17381;51.690;5.270;2023-04-05T13:03:38;102075.28;;;26.19;22.67
30614;BME280;17381;51.690;5.270;2023-04-05T13:06:11;102091.50;;;26.43;22.95
30614;BME280;17381;51.690;5.270;2023-04-05T13:08:52;102086.97;;;26.30;21.43
30614;BME280;17381;51.690;5.270;2023-04-05T13:11:28;102055.19;;;26.23;22.22
30614;BME280;17381;51.690;5.270;2023-04-05T13:13:57;102077.22;;;26.17;22.44
30614;BME280;17381;51.690;5.270;2023-04-05T13:16:33;102073.13;;;26.11;22.64
30614;BME280;17381;51.690;5.270;2023-04-05T13:19:06;102081.84;;;26.02;21.82
30614;BME280;17381;51.690;5.270;2023-04-05T13:21:33;102076.78;;;25.59;20.98
30614;BME280;17381;51.690;5.270;2023-04-05T13:24:03;102069.13;;;25.65;23.51
30614;BME280;17381;51.690;5.270;2023-04-05T13:26:36;102079.94;;;25.91;23.53
30614;BME280;17381;51.690;5.270;2023-04-05T13:29:08;102064.38;;;26.20;21.72
30614;BME280;17381;51.690;5.270;2023-04-05T13:31:41;102029.69;;;26.03;21.83
30614;BME280;17381;51.690;5.270;2023-04-05T13:34:12;102036.44;;;26.21;22.84
30614;BME280;17381;51.690;5.270;2023-04-05T13:36:48;102060.78;;;26.32;21.18
30614;BME280;17381;51.690;5.270;2023-04-05T13:39:27;102044.47;;;26.10;21.28
30614;BME280;17381;51.690;5.270;2023-04-05T13:42:00;102051.50;;;25.87;20.20
30614;BME280;17381;51.690;5.270;2023-04-05T13:44:41;102053.41;;;25.72;21.25
30614;BME280;17381;51.690;5.270;2023-04-05T13:47:16;102056.53;;;25.92;23.16
30614;BME280;17381;51.690;5.270;2023-04-05T13:49:49;102043.78;;;26.19;22.94
30614;BME280;17381;51.690;5.270;2023-04-05T13:52:22;102047.69;;;26.15;22.43
30614;BME280;17381;51.690;5.270;2023-04-05T13:54:54;102019.31;;;26.09;22.88
30614;BME280;17381;51.690;5.270;2023-04-05T13:57:36;102044.25;;;26.37;21.74
30614;BME280;17381;51.690;5.270;2023-04-05T14:00:05;101979.38;;;25.91;21.41
30614;BME280;17381;51.690;5.270;2023-04-05T14:02:42;102034.44;;;25.74;21.55
30614;BME280;17381;51.690;5.270;2023-04-05T14:05:16;102037.47;;;25.56;21.52
30614;BME280;17381;51.690;5.270;2023-04-05T14:07:45;102024.75;;;25.45;23.06
30614;BME280;17381;51.690;5.270;2023-04-05T14:10:17;101996.84;;;25.21;22.63
30614;BME280;17381;51.690;5.270;2023-04-05T14:12:51;102026.00;;;25.27;22.88
30614;BME280;17381;51.690;5.270;2023-04-05T14:15:25;102015.06;;;25.43;22.40
30614;BME280;17381;51.690;5.270;2023-04-05T14:17:55;102020.47;;;25.56;21.58
30614;BME280;17381;51.690;5.270;2023-04-05T14:20:29;102017.22;;;25.25;23.14
30614;BME280;17381;51.690;5.270;2023-04-05T14:23:06;102013.44;;;25.28;23.14